Time;durP1;ratioP1;P1;durP2;ratioP2;P2;SDS_P1;SDS_P2;PMS_P1;PMS_P2;Temp;Humidity;BMP_temperature;BMP_pressure;BME280_temperature;BME280_humidity;BME280_pressure;Samples;Min_cycle;Max_cycle;Signal;HPM_P1;HPM_P2
2021/04/30 00:00:16;;;;;;;24.90;22.20;;;8.90;99.90;;;;;;6200647;22;20709;-63
2021/04/30 00:02:42;;;;;;;24.97;22.27;;;8.90;99.90;;;;;;6200433;22;20160;-61
2021/04/30 00:05:09;;;;;;;24.13;21.70;;;8.90;99.90;;;;;;6196842;22;20985;-63
2021/04/30 00:07:35;;;;;;;23.80;21.30;;;8.90;99.90;;;;;;6200877;22;20543;-63
2021/04/30 00:10:00;;;;;;;24.10;21.50;;;8.90;99.90;;;;;;6200295;22;20555;-63
2021/04/30 00:12:26;;;;;;;26.97;24.17;;;8.80;99.90;;;;;;6200361;23;20900;-63
2021/04/30 00:14:52;;;;;;;25.53;22.83;;;9.00;99.90;;;;;;6203855;23;20156;-62
2021/04/30 00:17:20;;;;;;;25.47;22.77;;;9.00;99.90;;;;;;6193051;22;20952;-61
2021/04/30 00:19:45;;;;;;;26.23;23.33;;;9.00;99.90;;;;;;6189467;22;20755;-63
2021/04/30 00:22:11;;;;;;;25.47;22.70;;;9.00;99.90;;;;;;6199080;23;20567;-63
2021/04/30 00:24:37;;;;;;;28.70;24.10;;;9.00;99.90;;;;;;6201674;22;20476;-63
2021/04/30 00:27:06;;;;;;;26.33;23.60;;;8.90;99.90;;;;;;6201790;22;20394;-63
2021/04/30 00:29:31;;;;;;;26.90;23.90;;;8.90;99.90;;;;;;6202193;23;20562;-63
2021/04/30 00:31:57;;;;;;;29.57;25.30;;;8.90;99.90;;;;;;6199742;23;20575;-61
2021/04/30 00:34:23;;;;;;;28.30;25.20;;;8.90;99.90;;;;;;6169987;22;20191;-63
2021/04/30 00:36:49;;;;;;;27.33;24.30;;;8.90;99.90;;;;;;6194449;23;20535;-62
2021/04/30 00:39:20;;;;;;;27.03;24.20;;;8.90;99.90;;;;;;6196088;22;20676;-63
2021/04/30 00:41:45;;;;;;;27.20;24.40;;;8.90;99.90;;;;;;6197852;23;20583;-63
2021/04/30 00:44:11;;;;;;;29.53;25.77;;;8.90;99.90;;;;;;6202223;23;20635;-63
2021/04/30 00:46:37;;;;;;;28.93;25.27;;;8.90;99.90;;;;;;6198111;22;20206;-63
2021/04/30 00:49:04;;;;;;;27.10;23.97;;;8.90;99.90;;;;;;6205791;22;20204;-63
2021/04/30 00:51:32;;;;;;;29.70;26.53;;;8.90;99.90;;;;;;6202374;22;20923;-63
2021/04/30 00:53:59;;;;;;;27.53;24.63;;;9.00;99.90;;;;;;6200635;22;20563;-64
2021/04/30 00:56:25;;;;;;;28.53;25.63;;;9.00;99.90;;;;;;6210970;23;20531;-63
2021/04/30 00:58:51;;;;;;;28.70;25.60;;;9.00;99.90;;;;;;6203201;22;20642;-62
2021/04/30 01:01:18;;;;;;;28.30;25.20;;;9.00;99.90;;;;;;6200244;22;20181;-62
2021/04/30 01:03:50;;;;;;;28.10;25.10;;;9.00;99.90;;;;;;6203711;22;20540;-62
2021/04/30 01:06:15;;;;;;;27.87;24.97;;;9.00;99.90;;;;;;6211996;23;21146;-63
2021/04/30 01:08:41;;;;;;;27.63;24.53;;;9.00;99.90;;;;;;6199617;22;20591;-65
2021/04/30 01:11:07;;;;;;;28.90;25.80;;;8.90;99.90;;;;;;6213782;23;20230;-61
2021/04/30 01:13:32;;;;;;;27.97;25.07;;;8.90;99.90;;;;;;6216519;23;20152;-62
2021/04/30 01:15:58;;;;;;;32.60;25.87;;;8.90;99.90;;;;;;6216285;23;20538;-62
2021/04/30 01:18:24;;;;;;;29.03;25.93;;;8.90;99.90;;;;;;6215239;22;20208;-63
2021/04/30 01:20:50;;;;;;;27.70;24.90;;;8.90;99.90;;;;;;6215732;23;20232;-62
2021/04/30 01:23:15;;;;;;;29.77;26.67;;;9.00;99.90;;;;;;6209331;22;20160;-63
2021/04/30 01:25:41;;;;;;;30.50;26.20;;;9.00;99.90;;;;;;6207952;22;20563;-63
2021/04/30 01:28:08;;;;;;;28.90;25.80;;;8.90;99.90;;;;;;6198835;22;20282;-62
2021/04/30 01:30:38;;;;;;;29.20;26.00;;;8.90;99.90;;;;;;6200048;22;20211;-63
2021/04/30 01:33:22;;;;;;;30.87;27.63;;;8.90;99.90;;;;;;6197066;22;20604;-64
2021/04/30 01:35:48;;;;;;;30.40;25.93;;;8.90;99.90;;;;;;6200979;23;20885;-64
2021/04/30 01:38:14;;;;;;;30.37;27.00;;;8.90;99.90;;;;;;6198810;22;20743;-63
2021/04/30 01:40:39;;;;;;;28.90;25.80;;;8.90;99.90;;;;;;6198847;23;20701;-63
2021/04/30 01:43:08;;;;;;;29.37;26.20;;;8.90;99.90;;;;;;6202403;23;20159;-64
2021/04/30 01:45:37;;;;;;;29.40;26.10;;;8.90;99.90;;;;;;6176590;22;20168;-64
2021/04/30 01:48:05;;;;;;;28.23;25.33;;;8.90;99.90;;;;;;6200729;22;20620;-64
2021/04/30 01:50:33;;;;;;;30.17;26.73;;;9.00;99.90;;;;;;6202940;22;21042;-63
2021/04/30 01:52:59;;;;;;;30.00;26.80;;;8.90;99.90;;;;;;6203033;23;20535;-63
2021/04/30 01:55:27;;;;;;;28.90;25.90;;;9.00;99.90;;;;;;6202851;22;20906;-63
2021/04/30 01:57:52;;;;;;;31.10;27.73;;;9.00;99.90;;;;;;6198797;22;20208;-64
2021/04/30 02:00:23;;;;;;;30.37;27.17;;;8.90;99.90;;;;;;6193565;23;21143;-63
2021/04/30 02:02:51;;;;;;;30.13;26.67;;;9.00;99.90;;;;;;6200724;23;20145;-64
2021/04/30 02:05:18;;;;;;;30.23;26.93;;;9.00;99.90;;;;;;6202478;22;20571;-63
2021/04/30 02:07:44;;;;;;;32.27;27.40;;;8.90;99.90;;;;;;6203854;22;20648;-62
2021/04/30 02:10:15;;;;;;;30.63;27.43;;;8.90;99.90;;;;;;6209248;22;20626;-64
2021/04/30 02:12:41;;;;;;;31.50;27.37;;;9.00;99.90;;;;;;6206314;23;20216;-64
2021/04/30 02:15:09;;;;;;;29.40;26.23;;;9.00;99.90;;;;;;6196295;23;20973;-63
2021/04/30 02:17:35;;;;;;;30.30;27.10;;;9.00;99.90;;;;;;6200829;22;20626;-63
2021/04/30 02:20:01;;;;;;;30.57;27.17;;;8.90;99.90;;;;;;6174655;22;20594;-63
2021/04/30 02:22:27;;;;;;;30.47;27.20;;;8.90;99.90;;;;;;6201793;22;20555;-64
2021/04/30 02:24:52;;;;;;;29.80;26.60;;;8.90;99.90;;;;;;6202879;23;20156;-63
2021/04/30 02:27:20;;;;;;;29.63;26.37;;;8.90;99.90;;;;;;6203574;22;20545;-63
2021/04/30 02:29:48;;;;;;;31.07;27.77;;;8.90;99.90;;;;;;6197526;23;20160;-64
2021/04/30 02:32:14;;;;;;;30.07;26.53;;;8.90;99.90;;;;;;6199432;23;20583;-63
2021/04/30 02:34:40;;;;;;;30.73;27.10;;;8.90;99.90;;;;;;6203200;23;20804;-64
2021/04/30 02:37:05;;;;;;;30.93;26.90;;;8.90;99.90;;;;;;6200724;22;20163;-63
2021/04/30 02:39:32;;;;;;;32.10;27.80;;;8.90;99.90;;;;;;6199521;23;20184;-63
2021/04/30 02:42:00;;;;;;;32.20;27.70;;;8.90;99.90;;;;;;6195395;23;20180;-63
2021/04/30 02:44:25;;;;;;;30.40;27.00;;;8.80;99.90;;;;;;6201921;23;20785;-64
2021/04/30 02:46:51;;;;;;;33.30;27.60;;;8.90;99.90;;;;;;6197866;23;20520;-63
2021/04/30 02:49:24;;;;;;;30.77;27.17;;;8.90;99.90;;;;;;6197844;22;20204;-61
2021/04/30 02:51:49;;;;;;;31.47;27.03;;;8.90;99.90;;;;;;6201005;22;20419;-65
2021/04/30 02:54:15;;;;;;;30.50;27.20;;;8.90;99.90;;;;;;6199583;22;21154;-65
2021/04/30 02:56:41;;;;;;;30.40;26.77;;;8.90;99.90;;;;;;6201801;23;20188;-65
2021/04/30 02:59:06;;;;;;;29.60;26.60;;;8.90;99.90;;;;;;6200267;22;20212;-66
2021/04/30 03:01:32;;;;;;;30.70;25.70;;;8.90;99.90;;;;;;6197917;22;20172;-65
2021/04/30 03:03:57;;;;;;;31.13;27.23;;;8.90;99.90;;;;;;6199044;23;20184;-65
2021/04/30 03:06:25;;;;;;;33.50;28.37;;;9.00;99.90;;;;;;6198029;23;20622;-65
2021/04/30 03:08:53;;;;;;;28.33;25.20;;;9.00;99.90;;;;;;6202249;22;20247;-65
2021/04/30 03:11:19;;;;;;;31.20;27.33;;;9.00;99.90;;;;;;6202260;23;20876;-68
2021/04/30 03:13:46;;;;;;;29.23;26.13;;;9.00;99.90;;;;;;6200038;23;20603;-65
2021/04/30 03:16:12;;;;;;;28.73;25.40;;;9.00;99.90;;;;;;6197123;22;20578;-65
2021/04/30 03:18:40;;;;;;;28.80;25.33;;;9.00;99.90;;;;;;6198328;22;20619;-64
2021/04/30 03:21:05;;;;;;;32.27;27.43;;;9.00;99.90;;;;;;6195858;23;20619;-65
2021/04/30 03:23:31;;;;;;;30.00;26.80;;;9.00;99.90;;;;;;6197443;23;20933;-64
2021/04/30 03:25:56;;;;;;;29.67;25.63;;;9.00;99.90;;;;;;6167806;23;20203;-65
2021/04/30 03:28:22;;;;;;;28.10;25.07;;;9.00;99.90;;;;;;6198752;22;20683;-65
2021/04/30 03:30:47;;;;;;;30.20;25.67;;;9.00;99.90;;;;;;6202271;23;20229;-64
2021/04/30 03:33:13;;;;;;;29.33;26.13;;;9.00;99.90;;;;;;6202913;22;20310;-65
2021/04/30 03:35:39;;;;;;;28.57;25.10;;;9.00;99.90;;;;;;6203451;23;20148;-65
2021/04/30 03:38:04;;;;;;;29.97;26.77;;;9.00;99.90;;;;;;6196203;22;20256;-65
2021/04/30 03:40:31;;;;;;;28.33;25.37;;;9.00;99.90;;;;;;6175270;22;20180;-65
2021/04/30 03:42:56;;;;;;;28.70;25.67;;;9.00;99.90;;;;;;6200558;22;20559;-64
2021/04/30 03:45:22;;;;;;;28.90;25.23;;;9.00;99.90;;;;;;6202519;23;21062;-65
2021/04/30 03:47:48;;;;;;;29.60;26.00;;;9.00;99.90;;;;;;6200585;22;20267;-65
2021/04/30 03:50:13;;;;;;;28.23;25.10;;;8.90;99.90;;;;;;6199046;22;20296;-65
2021/04/30 03:52:39;;;;;;;27.37;24.40;;;9.00;99.90;;;;;;6203249;23;20231;-65
2021/04/30 03:55:05;;;;;;;28.23;24.87;;;8.90;99.90;;;;;;6201352;23;20152;-65
2021/04/30 03:57:31;;;;;;;27.07;24.17;;;9.00;99.90;;;;;;6195456;22;20212;-65
2021/04/30 03:59:59;;;;;;;28.67;25.60;;;9.00;99.90;;;;;;6201306;23;20550;-65
2021/04/30 04:02:24;;;;;;;30.63;25.67;;;9.00;99.90;;;;;;6197779;23;20232;-66
2021/04/30 04:04:53;;;;;;;29.27;26.10;;;9.00;99.90;;;;;;6177000;22;21103;-65
2021/04/30 04:07:18;;;;;;;27.83;24.93;;;9.00;99.90;;;;;;6198138;22;20198;-65
2021/04/30 04:09:44;;;;;;;28.60;25.50;;;9.00;99.90;;;;;;6200565;23;20551;-65
2021/04/30 04:12:09;;;;;;;26.43;23.53;;;9.00;99.90;;;;;;6176398;22;20189;-65
2021/04/30 04:14:35;;;;;;;27.10;24.20;;;9.00;99.90;;;;;;6202778;23;20659;-65
2021/04/30 04:17:00;;;;;;;28.13;25.13;;;9.00;99.90;;;;;;6203744;22;20168;-65
2021/04/30 04:19:26;;;;;;;28.27;24.83;;;9.00;99.90;;;;;;6209605;23;20184;-65
2021/04/30 04:21:51;;;;;;;29.37;26.17;;;9.00;99.90;;;;;;6211786;23;20183;-65
2021/04/30 04:24:19;;;;;;;31.60;26.33;;;9.10;99.90;;;;;;6198291;23;20160;-64
2021/04/30 04:26:45;;;;;;;29.13;26.13;;;9.10;99.90;;;;;;6200539;22;20159;-65
2021/04/30 04:29:10;;;;;;;29.87;26.53;;;9.10;99.90;;;;;;6202123;22;20587;-65
2021/04/30 04:31:36;;;;;;;29.77;26.57;;;9.10;99.90;;;;;;6197812;23;20199;-65
2021/04/30 04:34:02;;;;;;;27.87;24.87;;;9.10;99.90;;;;;;6204066;22;20164;-65
2021/04/30 04:36:28;;;;;;;30.03;26.67;;;9.10;99.90;;;;;;6198798;22;20497;-65
2021/04/30 04:38:53;;;;;;;29.83;26.40;;;9.10;99.90;;;;;;6202283;22;20625;-65
2021/04/30 04:41:24;;;;;;;29.83;25.40;;;9.10;99.90;;;;;;6203519;23;20226;-65
2021/04/30 04:43:49;;;;;;;27.70;24.67;;;9.10;99.90;;;;;;6203399;22;20170;-65
2021/04/30 04:46:17;;;;;;;28.57;25.20;;;9.10;99.90;;;;;;6172273;22;20568;-65
2021/04/30 04:48:43;;;;;;;28.00;25.00;;;9.20;99.90;;;;;;6198668;22;20595;-64
2021/04/30 04:51:08;;;;;;;30.37;26.23;;;9.10;99.90;;;;;;6200475;23;20602;-65
2021/04/30 04:53:34;;;;;;;29.37;26.27;;;9.20;99.90;;;;;;6196564;23;20161;-67
2021/04/30 04:56:01;;;;;;;28.87;25.77;;;9.20;99.90;;;;;;6199141;23;20187;-65
2021/04/30 04:58:27;;;;;;;29.17;26.07;;;9.30;99.90;;;;;;6200134;22;20207;-65
2021/04/30 05:00:53;;;;;;;29.30;26.20;;;9.30;99.90;;;;;;6198097;23;20582;-65
2021/04/30 05:03:18;;;;;;;31.70;26.97;;;9.20;99.90;;;;;;6198743;22;20229;-65
2021/04/30 05:05:44;;;;;;;29.77;26.57;;;9.20;99.90;;;;;;6202680;23;20156;-65
2021/04/30 05:08:14;;;;;;;33.43;28.03;;;9.20;99.90;;;;;;6197427;22;20563;-64
2021/04/30 05:10:39;;;;;;;32.53;28.03;;;9.20;99.90;;;;;;6201191;23;20255;-65
2021/04/30 05:13:05;;;;;;;29.10;26.10;;;9.20;99.90;;;;;;6197062;22;20563;-65
2021/04/30 05:15:32;;;;;;;30.93;27.63;;;9.20;99.90;;;;;;6199118;23;20161;-65
2021/04/30 05:17:58;;;;;;;31.27;27.17;;;9.10;99.90;;;;;;6190537;22;20718;-62
2021/04/30 05:20:23;;;;;;;30.53;27.23;;;9.20;99.90;;;;;;6189191;23;20603;-62
2021/04/30 05:22:49;;;;;;;32.10;28.63;;;9.20;99.90;;;;;;6189425;23;20168;-63
2021/04/30 05:25:15;;;;;;;30.57;27.37;;;9.10;99.90;;;;;;6199460;23;20496;-63
2021/04/30 05:27:42;;;;;;;30.90;27.60;;;9.20;99.90;;;;;;6198084;22;20200;-63
2021/04/30 05:30:12;;;;;;;29.43;26.33;;;9.20;99.90;;;;;;6190726;22;20751;-62
2021/04/30 05:32:37;;;;;;;30.63;27.43;;;9.30;99.90;;;;;;6194134;23;21081;-63
2021/04/30 05:35:04;;;;;;;30.40;27.27;;;9.20;99.90;;;;;;6193297;23;20563;-63
2021/04/30 05:37:34;;;;;;;31.20;28.00;;;9.20;99.90;;;;;;6185874;22;20202;-62
2021/04/30 05:40:02;;;;;;;30.20;26.50;;;9.20;99.90;;;;;;6189153;23;20559;-63
2021/04/30 05:42:27;;;;;;;30.23;26.70;;;9.20;99.90;;;;;;6195447;23;20534;-63
2021/04/30 05:44:53;;;;;;;29.67;26.47;;;9.30;99.90;;;;;;6183544;23;20547;-62
2021/04/30 05:47:20;;;;;;;32.20;26.83;;;9.30;99.90;;;;;;6186580;22;20188;-63
2021/04/30 05:49:47;;;;;;;28.33;25.43;;;9.30;99.90;;;;;;6193543;23;20567;-63
2021/04/30 05:52:14;;;;;;;29.27;26.07;;;9.30;99.90;;;;;;6189180;23;20560;-62
2021/04/30 05:54:41;;;;;;;31.43;28.03;;;9.40;99.90;;;;;;6188299;23;20567;-63
2021/04/30 05:57:07;;;;;;;29.43;26.43;;;9.40;99.90;;;;;;6199289;22;20899;-63
2021/04/30 05:59:33;;;;;;;28.43;25.13;;;9.40;99.90;;;;;;6194304;23;20609;-62
2021/04/30 06:01:59;;;;;;;30.13;27.13;;;9.40;99.90;;;;;;6202587;23;21150;-63
2021/04/30 06:04:26;;;;;;;30.73;27.23;;;9.40;99.90;;;;;;6189954;23;20200;-64
2021/04/30 06:06:55;;;;;;;28.93;25.83;;;9.40;99.90;;;;;;6192527;22;20184;-65
2021/04/30 06:09:20;;;;;;;28.90;25.80;;;9.40;99.90;;;;;;6200293;23;20587;-64
2021/04/30 06:11:46;;;;;;;30.20;27.00;;;9.40;99.90;;;;;;6202709;23;20574;-64
2021/04/30 06:14:12;;;;;;;28.97;25.87;;;9.40;99.90;;;;;;6199825;23;20156;-64
2021/04/30 06:16:38;;;;;;;29.93;26.67;;;9.40;99.90;;;;;;6196223;23;20230;-63
2021/04/30 06:19:04;;;;;;;30.57;27.27;;;9.50;99.90;;;;;;6197606;22;20219;-64
2021/04/30 06:21:30;;;;;;;30.23;26.90;;;9.50;99.90;;;;;;6199199;23;20571;-64
2021/04/30 06:23:59;;;;;;;28.40;25.40;;;9.50;99.90;;;;;;6198631;23;20545;-63
2021/04/30 06:26:27;;;;;;;30.10;26.87;;;9.50;99.90;;;;;;6196459;23;20841;-63
2021/04/30 06:28:53;;;;;;;29.53;26.43;;;9.60;99.90;;;;;;6194233;22;20757;-63
2021/04/30 06:31:22;;;;;;;29.53;26.43;;;9.60;99.90;;;;;;6193228;22;20583;-64
2021/04/30 06:33:48;;;;;;;30.23;26.97;;;9.70;99.90;;;;;;6197726;22;20524;-63
2021/04/30 06:36:13;;;;;;;29.10;25.87;;;9.80;99.90;;;;;;6189990;22;20573;-64
2021/04/30 06:38:39;;;;;;;30.87;27.57;;;9.80;99.90;;;;;;6189671;22;20701;-64
2021/04/30 06:41:05;;;;;;;28.97;25.87;;;9.80;99.90;;;;;;6187073;22;20181;-64
2021/04/30 06:43:30;;;;;;;31.13;27.00;;;9.90;99.90;;;;;;6194145;23;20528;-64
2021/04/30 06:45:56;;;;;;;28.47;25.30;;;9.90;99.90;;;;;;6192293;22;20160;-63
2021/04/30 06:48:22;;;;;;;28.53;25.63;;;9.90;99.90;;;;;;6163347;23;20656;-64
2021/04/30 06:50:50;;;;;;;26.60;23.90;;;10.00;99.90;;;;;;6195375;23;20189;-64
2021/04/30 06:53:15;;;;;;;27.93;24.83;;;10.00;99.90;;;;;;6195322;23;20167;-64
2021/04/30 06:55:41;;;;;;;28.27;25.27;;;10.00;99.90;;;;;;6192645;22;20547;-66
2021/04/30 06:58:06;;;;;;;28.50;25.50;;;10.00;99.90;;;;;;6193345;22;20546;-66
2021/04/30 07:00:32;;;;;;;26.80;24.00;;;10.10;99.90;;;;;;6194605;22;20201;-66
2021/04/30 07:02:57;;;;;;;27.50;24.50;;;10.10;99.90;;;;;;6195641;23;20605;-65
2021/04/30 07:05:23;;;;;;;28.30;25.40;;;10.10;99.90;;;;;;6169943;22;20164;-66
2021/04/30 07:07:53;;;;;;;28.10;25.20;;;10.10;99.90;;;;;;6193649;22;20204;-65
2021/04/30 07:10:20;;;;;;;26.00;23.20;;;10.20;99.90;;;;;;6192892;23;20183;-66
2021/04/30 07:12:46;;;;;;;28.87;24.80;;;10.20;99.90;;;;;;6196929;23;20543;-65
2021/04/30 07:15:12;;;;;;;27.17;24.37;;;10.30;99.90;;;;;;6192368;23;21393;-65
2021/04/30 07:17:37;;;;;;;27.47;24.67;;;10.30;99.90;;;;;;6192248;22;20588;-65
2021/04/30 07:20:06;;;;;;;28.33;25.40;;;10.30;99.90;;;;;;6193691;23;20205;-65
2021/04/30 07:22:31;;;;;;;25.77;23.23;;;10.40;99.90;;;;;;6191501;22;20187;-65
2021/04/30 07:24:57;;;;;;;24.60;22.20;;;10.40;99.90;;;;;;6167353;22;20563;-65
2021/04/30 07:27:22;;;;;;;25.00;22.60;;;10.50;99.90;;;;;;6192344;22;20249;-64
2021/04/30 07:29:50;;;;;;;26.47;23.83;;;10.50;99.90;;;;;;6192456;23;20167;-65
2021/04/30 07:32:16;;;;;;;24.80;22.30;;;10.50;99.90;;;;;;6170151;22;20180;-65
2021/04/30 07:34:43;;;;;;;23.47;21.20;;;10.50;99.90;;;;;;6197550;23;20559;-65
2021/04/30 07:37:09;;;;;;;26.77;23.97;;;10.60;99.90;;;;;;6195267;22;21103;-65
2021/04/30 07:39:36;;;;;;;27.13;23.60;;;10.60;99.90;;;;;;6195170;22;20583;-66
2021/04/30 07:42:03;;;;;;;26.20;23.47;;;10.70;99.90;;;;;;6193369;23;20571;-65
2021/04/30 07:44:29;;;;;;;28.20;25.50;;;10.70;99.90;;;;;;6197090;22;21267;-65
2021/04/30 07:46:55;;;;;;;25.93;23.43;;;10.70;99.90;;;;;;6195934;22;20662;-65
2021/04/30 07:49:21;;;;;;;25.43;22.93;;;10.70;99.90;;;;;;6194410;23;20235;-66
2021/04/30 07:51:46;;;;;;;26.70;24.10;;;10.80;99.90;;;;;;6196705;22;20633;-66
2021/04/30 07:54:14;;;;;;;25.00;22.50;;;10.70;99.90;;;;;;6170552;22;20253;-66
2021/04/30 07:56:39;;;;;;;24.97;22.37;;;10.80;99.90;;;;;;6194113;23;20148;-66
2021/04/30 07:59:07;;;;;;;23.97;21.57;;;10.70;99.90;;;;;;6195130;22;20619;-66
2021/04/30 08:01:33;;;;;;;22.27;20.07;;;10.70;99.90;;;;;;6195452;22;20311;-66
2021/04/30 08:03:59;;;;;;;22.00;19.80;;;10.70;99.90;;;;;;6198929;22;21125;-66
2021/04/30 08:06:27;;;;;;;19.97;17.97;;;10.70;99.90;;;;;;6193756;23;20156;-66
2021/04/30 08:08:53;;;;;;;19.03;17.13;;;10.70;99.90;;;;;;6196240;22;20203;-65
2021/04/30 08:11:19;;;;;;;19.10;17.30;;;10.70;99.90;;;;;;6198187;23;20583;-66
2021/04/30 08:13:45;;;;;;;19.03;17.20;;;10.70;99.90;;;;;;6196628;23;20619;-66
2021/04/30 08:16:10;;;;;;;18.63;16.93;;;10.70;99.90;;;;;;6199029;23;20160;-66
2021/04/30 08:18:36;;;;;;;18.23;16.40;;;10.80;99.90;;;;;;6197598;22;20200;-66
2021/04/30 08:21:05;;;;;;;18.17;15.70;;;10.80;99.90;;;;;;6196034;23;20785;-66
2021/04/30 08:23:30;;;;;;;17.00;15.30;;;10.80;99.90;;;;;;6198556;22;20160;-66
2021/04/30 08:25:57;;;;;;;16.57;15.07;;;10.80;99.90;;;;;;6194211;22;20605;-64
2021/04/30 08:28:22;;;;;;;17.60;15.90;;;10.90;99.90;;;;;;6198230;22;20287;-65
2021/04/30 08:30:50;;;;;;;17.20;15.53;;;10.90;99.90;;;;;;6195884;22;20646;-64
2021/04/30 08:33:16;;;;;;;17.70;15.90;;;10.90;99.90;;;;;;6193489;23;20225;-65
2021/04/30 08:35:42;;;;;;;17.00;15.40;;;10.90;99.90;;;;;;6200775;23;21216;-65
2021/04/30 08:38:07;;;;;;;17.23;15.43;;;11.00;99.90;;;;;;6194458;22;20204;-64
2021/04/30 08:40:33;;;;;;;17.30;15.60;;;11.00;99.90;;;;;;6199121;23;21094;-64
2021/04/30 08:43:00;;;;;;;17.43;15.93;;;11.00;99.90;;;;;;6199407;23;20223;-65
2021/04/30 08:45:27;;;;;;;18.47;16.80;;;11.10;99.90;;;;;;6202044;23;20534;-65
2021/04/30 08:47:54;;;;;;;18.03;16.33;;;11.10;99.90;;;;;;6195082;22;20591;-65
2021/04/30 08:50:20;;;;;;;17.17;15.67;;;11.10;99.90;;;;;;6186103;22;20611;-64
2021/04/30 08:52:46;;;;;;;16.13;14.47;;;11.10;99.90;;;;;;6191954;23;20532;-65
2021/04/30 08:55:16;;;;;;;17.17;15.57;;;11.10;99.90;;;;;;6187592;22;20883;-65
2021/04/30 08:57:44;;;;;;;15.20;13.90;;;11.10;99.90;;;;;;6187665;22;20204;-64
2021/04/30 09:00:14;;;;;;;14.63;13.23;;;11.20;99.90;;;;;;6187661;22;21069;-62
2021/04/30 09:02:40;;;;;;;15.23;13.93;;;11.20;99.90;;;;;;6190226;22;20562;-64
2021/04/30 09:05:10;;;;;;;14.70;13.40;;;11.30;99.90;;;;;;6188669;22;21511;-65
2021/04/30 09:07:41;;;;;;;16.27;14.77;;;11.30;99.90;;;;;;6188133;22;20196;-66
2021/04/30 09:10:12;;;;;;;15.30;13.93;;;11.50;99.90;;;;;;6187221;22;20916;-65
2021/04/30 09:12:38;;;;;;;14.50;13.27;;;11.60;99.90;;;;;;6191587;23;20662;-66
2021/04/30 09:15:05;;;;;;;14.13;12.80;;;11.70;99.90;;;;;;6194857;23;21003;-65
2021/04/30 09:17:31;;;;;;;13.00;11.80;;;11.70;99.90;;;;;;6185544;22;20242;-66
2021/04/30 09:20:03;;;;;;;12.50;11.40;;;12.00;99.90;;;;;;6187121;23;20646;-66
2021/04/30 09:22:37;;;;;;;12.90;11.80;;;12.10;99.90;;;;;;6191539;23;20141;-66
2021/04/30 09:25:08;;;;;;;13.67;12.37;;;12.20;99.90;;;;;;6188238;23;20652;-65
2021/04/30 09:27:39;;;;;;;14.20;12.90;;;12.40;99.90;;;;;;6187137;22;20670;-65
2021/04/30 09:30:28;;;;;;;13.47;12.37;;;12.50;99.90;;;;;;6185985;22;20941;-65
2021/04/30 09:33:06;;;;;;;13.67;12.47;;;12.60;99.90;;;;;;6191823;22;20646;-66
2021/04/30 09:35:55;;;;;;;12.30;11.30;;;12.70;99.90;;;;;;6165281;22;20579;-65
2021/04/30 09:38:23;;;;;;;12.20;11.20;;;12.70;99.90;;;;;;6193368;22;20646;-65
2021/04/30 09:41:10;;;;;;;12.33;11.43;;;12.80;99.90;;;;;;6167452;22;20990;-66
2021/04/30 09:43:47;;;;;;;12.73;11.63;;;12.90;99.90;;;;;;6191890;22;20960;-65
2021/04/30 09:46:26;;;;;;;12.93;11.93;;;12.90;99.90;;;;;;6160768;22;20677;-65
2021/04/30 09:49:12;;;;;;;14.30;13.10;;;12.90;99.90;;;;;;6185878;22;21030;-66
2021/04/30 09:51:46;;;;;;;13.37;12.17;;;12.90;99.90;;;;;;6191164;22;20615;-66
2021/04/30 09:54:22;;;;;;;13.70;12.57;;;12.90;99.90;;;;;;6161237;22;20890;-65
2021/04/30 09:56:49;;;;;;;13.60;12.43;;;13.00;99.90;;;;;;6189536;23;20539;-65
2021/04/30 09:59:28;;;;;;;14.00;12.60;;;13.00;99.90;;;;;;6188212;22;20633;-67
2021/04/30 10:02:16;;;;;;;13.20;12.10;;;13.10;99.90;;;;;;6192427;22;20578;-66
2021/04/30 10:04:43;;;;;;;13.47;12.37;;;13.30;99.90;;;;;;6195553;22;20492;-65
2021/04/30 10:07:11;;;;;;;12.83;11.80;;;13.40;99.90;;;;;;6192417;22;20550;-65
2021/04/30 10:09:38;;;;;;;12.47;11.37;;;13.40;99.90;;;;;;6191069;22;20650;-65
2021/04/30 10:12:27;;;;;;;11.90;11.00;;;13.40;99.90;;;;;;6191184;22;21124;-66
2021/04/30 10:14:54;;;;;;;12.40;11.40;;;13.50;99.90;;;;;;6196320;23;20593;-64
2021/04/30 10:17:20;;;;;;;12.20;11.30;;;13.50;99.90;;;;;;6202772;22;20586;-64
2021/04/30 10:19:47;;;;;;;12.90;11.73;;;13.60;99.90;;;;;;6178696;22;20603;-66
2021/04/30 10:22:24;;;;;;;11.93;10.97;;;13.60;99.90;;;;;;6194896;22;20603;-64
2021/04/30 10:24:55;;;;;;;11.60;10.70;;;13.70;99.90;;;;;;6195676;22;20587;-65
2021/04/30 10:27:32;;;;;;;11.67;10.57;;;13.70;99.90;;;;;;6200531;22;21056;-64
2021/04/30 10:30:34;;;;;;;11.10;10.20;;;13.80;99.90;;;;;;6196533;22;20647;-64
2021/04/30 10:33:19;;;;;;;11.50;10.50;;;14.00;99.90;;;;;;6198317;22;20539;-65
2021/04/30 10:35:51;;;;;;;10.87;10.00;;;14.10;99.90;;;;;;6198963;23;20570;-65
2021/04/30 10:38:21;;;;;;;11.30;10.40;;;14.20;99.90;;;;;;6197574;22;20611;-65
2021/04/30 10:40:51;;;;;;;12.20;11.20;;;14.30;99.90;;;;;;6192130;22;20575;-65
2021/04/30 10:43:21;;;;;;;11.17;10.27;;;14.40;99.90;;;;;;6193438;22;20916;-65
2021/04/30 10:48:24;;;;;;;11.70;10.70;;;14.40;99.90;;;;;;6170090;23;20612;-62
2021/04/30 10:50:50;;;;;;;12.00;11.00;;;14.50;99.90;;;;;;6143226;23;20982;-62
2021/04/30 10:53:23;;;;;;;11.43;10.43;;;14.40;99.90;;;;;;6167890;23;20556;-62
2021/04/30 10:55:49;;;;;;;11.10;10.20;;;14.40;99.90;;;;;;6140086;23;21108;-63
2021/04/30 10:58:35;;;;;;;13.43;11.40;;;14.20;99.90;;;;;;6166046;23;20952;-62
2021/04/30 11:01:22;;;;;;;11.50;10.60;;;14.20;99.90;;;;;;6155421;23;20717;-63
2021/04/30 11:04:10;;;;;;;10.43;9.70;;;14.10;99.90;;;;;;6161704;23;21097;-61
2021/04/30 11:09:15;;;;;;;11.47;10.43;;;14.00;99.90;;;;;;6132311;23;20621;-66
2021/04/30 11:11:44;;;;;;;11.00;10.10;;;13.90;99.90;;;;;;6157888;23;20572;-65
2021/04/30 11:14:32;;;;;;;12.60;11.63;;;13.80;99.90;;;;;;6140383;23;20563;-67
2021/04/30 11:16:59;;;;;;;12.10;11.20;;;13.70;99.90;;;;;;6162985;22;20565;-66
2021/04/30 11:19:27;;;;;;;11.10;10.20;;;13.70;99.90;;;;;;6139625;22;20928;-65
2021/04/30 11:21:55;;;;;;;12.17;11.20;;;13.70;99.90;;;;;;6169050;23;20557;-66
2021/04/30 11:24:32;;;;;;;11.33;10.43;;;13.80;99.90;;;;;;6168395;22;20536;-65
2021/04/30 11:27:19;;;;;;;11.60;10.70;;;13.70;99.90;;;;;;6164693;23;20564;-66
2021/04/30 11:29:46;;;;;;;11.30;10.40;;;13.80;99.90;;;;;;6165738;23;21016;-66
2021/04/30 11:32:25;;;;;;;11.80;10.80;;;13.90;99.90;;;;;;6171797;23;21093;-64
2021/04/30 11:34:59;;;;;;;12.10;10.90;;;14.00;99.90;;;;;;6165730;23;21037;-64
2021/04/30 11:37:26;;;;;;;11.00;10.10;;;13.90;99.90;;;;;;6139797;22;20592;-66
2021/04/30 11:39:56;;;;;;;11.20;10.30;;;14.00;99.90;;;;;;6168192;23;20568;-66
2021/04/30 11:42:27;;;;;;;11.23;10.33;;;14.00;99.90;;;;;;6169279;22;20592;-67
2021/04/30 11:44:53;;;;;;;10.87;9.97;;;14.10;99.90;;;;;;6165945;23;20570;-67
2021/04/30 11:47:26;;;;;;;10.53;9.73;;;14.10;99.90;;;;;;6135698;23;20592;-65
2021/04/30 11:49:54;;;;;;;10.40;9.60;;;14.10;99.90;;;;;;6170861;23;20145;-67
2021/04/30 11:52:28;;;;;;;10.97;10.17;;;14.20;99.90;;;;;;6166463;22;20569;-66
2021/04/30 11:55:04;;;;;;;11.53;10.73;;;14.20;99.90;;;;;;6141388;22;20579;-67
2021/04/30 11:57:30;;;;;;;11.10;10.30;;;14.20;99.90;;;;;;6138694;22;20605;-64
2021/04/30 11:59:57;;;;;;;10.13;9.43;;;14.30;99.90;;;;;;6137688;22;20687;-65
2021/04/30 12:02:26;;;;;;;11.00;10.20;;;14.20;99.90;;;;;;6159012;22;20484;-67
2021/04/30 12:04:53;;;;;;;11.50;10.60;;;14.30;99.90;;;;;;6165842;22;20564;-67
2021/04/30 12:07:26;;;;;;;10.50;9.70;;;14.30;99.90;;;;;;6131727;22;20592;-65
2021/04/30 12:09:53;;;;;;;10.63;9.63;;;14.30;99.90;;;;;;6164528;23;20606;-64
2021/04/30 12:12:24;;;;;;;10.40;9.57;;;14.50;99.90;;;;;;6138490;22;20603;-65
2021/04/30 12:14:53;;;;;;;11.30;10.17;;;14.50;99.90;;;;;;6173151;23;20625;-64
2021/04/30 12:17:21;;;;;;;10.97;10.17;;;14.40;99.90;;;;;;6141073;23;20603;-65
2021/04/30 12:20:05;;;;;;;10.60;9.80;;;14.40;99.90;;;;;;6167349;23;20627;-65
2021/04/30 12:22:31;;;;;;;10.27;9.57;;;14.30;99.90;;;;;;6132773;23;20915;-68
2021/04/30 12:25:22;;;;;;;10.03;9.23;;;14.30;99.90;;;;;;6164102;23;20537;-72
2021/04/30 12:27:48;;;;;;;10.63;9.83;;;14.20;99.90;;;;;;6134903;23;20591;-68
2021/04/30 12:30:29;;;;;;;10.43;9.63;;;14.20;99.90;;;;;;6172402;23;20575;-70
2021/04/30 12:32:56;;;;;;;11.20;10.40;;;14.10;99.90;;;;;;6155468;23;20575;-68
2021/04/30 12:35:25;;;;;;;11.77;10.87;;;14.10;99.90;;;;;;6144838;22;20588;-70
2021/04/30 12:37:51;;;;;;;11.90;11.00;;;14.10;99.90;;;;;;6161990;23;20584;-70
2021/04/30 12:40:22;;;;;;;11.20;10.30;;;14.00;99.90;;;;;;6163649;23;20932;-68
2021/04/30 12:42:50;;;;;;;12.83;11.73;;;13.90;99.90;;;;;;6139436;22;20690;-68